createdAt,value
2023-01-01T00:00:26.127Z,37.70
2023-01-01T00:02:54.236Z,27.83
2023-01-01T00:05:22.226Z,43.83
2023-01-01T00:07:50.232Z,24.03
2023-01-01T00:10:30.492Z,6.67
2023-01-01T00:12:59.222Z,7.17
2023-01-01T00:15:29.086Z,8.20
2023-01-01T00:17:57.847Z,4.67
2023-01-01T00:20:31.511Z,4.90
2023-01-01T00:23:02.850Z,5.83
2023-01-01T00:25:32.518Z,7.20
2023-01-01T00:28:00.663Z,6.30
2023-01-01T00:30:30.108Z,4.63
2023-01-01T00:32:58.176Z,7.53
2023-01-01T00:35:27.320Z,12.20
2023-01-01T00:37:56.437Z,6.57
2023-01-01T00:40:24.759Z,6.30
2023-01-01T00:42:52.775Z,6.80
2023-01-01T00:45:22.527Z,6.40
2023-01-01T00:47:54.218Z,9.90
2023-01-01T00:50:22.973Z,8.90
2023-01-01T00:52:51.220Z,8.33
2023-01-01T00:55:19.397Z,7.83
2023-01-01T00:57:47.450Z,10.40
2023-01-01T01:00:16.745Z,28.30
2023-01-01T01:02:44.917Z,39.73
2023-01-01T01:05:14.366Z,67.27
2023-01-01T01:07:42.811Z,86.93
2023-01-01T01:10:12.119Z,66.00
2023-01-01T01:12:40.379Z,83.30
2023-01-01T01:15:09.679Z,86.57
2023-01-01T01:17:37.974Z,83.90
2023-01-01T01:20:07.744Z,67.47
2023-01-01T01:22:37.208Z,55.67
2023-01-01T01:25:05.824Z,44.00
2023-01-01T01:27:34.318Z,14.70
2023-01-01T01:30:02.391Z,17.40
2023-01-01T01:32:30.419Z,13.23
2023-01-01T01:34:58.489Z,21.10
2023-01-01T01:37:26.506Z,21.20
2023-01-01T01:39:55.908Z,27.47
2023-01-01T01:42:23.936Z,36.30
2023-01-01T01:44:56.534Z,43.60
2023-01-01T01:47:29.643Z,47.53
2023-01-01T01:50:02.725Z,43.57
2023-01-01T01:52:35.631Z,25.43
2023-01-01T01:55:09.025Z,15.63
2023-01-01T01:57:38.997Z,11.30
2023-01-01T02:00:11.468Z,10.37
2023-01-01T02:02:47.688Z,11.47
2023-01-01T02:05:16.101Z,15.47
2023-01-01T02:07:44.266Z,15.90
2023-01-01T02:10:13.665Z,16.63
2023-01-01T02:12:41.784Z,14.60
2023-01-01T02:15:10.936Z,13.00
2023-01-01T02:17:46.969Z,17.27
2023-01-01T02:20:34.358Z,14.97
2023-01-01T02:23:26.586Z,12.90
2023-01-01T02:26:11.132Z,17.27
2023-01-01T02:29:00.357Z,26.87
2023-01-01T02:31:31.106Z,14.00
2023-01-01T02:34:04.115Z,11.40
2023-01-01T02:36:34.680Z,9.77
2023-01-01T02:39:06.193Z,9.50
2023-01-01T02:41:39.749Z,9.83
2023-01-01T02:44:09.280Z,7.80
2023-01-01T02:46:37.783Z,9.70
2023-01-01T02:49:10.294Z,7.00
2023-01-01T02:51:51.416Z,5.77
2023-01-01T02:54:26.539Z,5.80
2023-01-01T02:57:10.855Z,5.57
2023-01-01T03:00:10.074Z,5.70
2023-01-01T03:02:51.384Z,5.30
2023-01-01T03:05:24.661Z,5.13
2023-01-01T03:08:04.429Z,5.43
2023-01-01T03:10:39.679Z,5.37
2023-01-01T03:13:16.884Z,4.00
2023-01-01T03:15:58.058Z,4.10
2023-01-01T03:18:31.254Z,5.50
2023-01-01T03:21:02.892Z,4.30
2023-01-01T03:23:37.229Z,5.20
2023-01-01T03:26:10.532Z,4.47
2023-01-01T03:28:45.374Z,5.37
2023-01-01T03:31:17.168Z,4.10
2023-01-01T03:33:48.923Z,6.20
2023-01-01T03:36:22.736Z,5.90
2023-01-01T03:38:53.832Z,4.90
2023-01-01T03:41:27.541Z,4.73
2023-01-01T03:44:03.566Z,5.30
2023-01-01T03:46:36.815Z,5.30
2023-01-01T03:49:07.197Z,4.23
2023-01-01T03:52:05.447Z,4.50
2023-01-01T03:54:46.355Z,4.30
2023-01-01T03:57:20.622Z,4.10
2023-01-01T03:59:54.432Z,4.97
2023-01-01T04:02:29.098Z,3.87
2023-01-01T04:05:00.969Z,4.33
2023-01-01T04:07:30.759Z,4.53
2023-01-01T04:10:00.536Z,4.70
2023-01-01T04:12:29.576Z,6.40
2023-01-01T04:14:57.616Z,6.20
2023-01-01T04:17:26.998Z,7.07
2023-01-01T04:19:55.478Z,6.67
2023-01-01T04:22:23.942Z,7.33
2023-01-01T04:24:52.099Z,6.40
2023-01-01T04:27:20.152Z,6.77
2023-01-01T04:29:48.215Z,6.90
2023-01-01T04:32:16.308Z,7.20
2023-01-01T04:34:45.745Z,7.83
2023-01-01T04:37:13.935Z,7.53
2023-01-01T04:39:42.092Z,10.20
2023-01-01T04:42:10.195Z,6.97
2023-01-01T04:44:38.324Z,8.27
2023-01-01T04:47:06.873Z,8.30
2023-01-01T04:49:34.931Z,6.33
2023-01-01T04:52:05.029Z,6.67
2023-01-01T04:54:33.348Z,6.53
2023-01-01T04:57:01.402Z,7.20
2023-01-01T04:59:31.170Z,7.10
2023-01-01T05:01:59.438Z,6.67
2023-01-01T05:04:27.998Z,6.70
2023-01-01T05:06:56.036Z,8.93
2023-01-01T05:09:25.456Z,6.97
2023-01-01T05:11:55.442Z,6.50
2023-01-01T05:14:23.526Z,5.87
2023-01-01T05:16:51.648Z,6.03
2023-01-01T05:19:19.647Z,5.93
2023-01-01T05:21:47.663Z,7.60
2023-01-01T05:24:15.911Z,5.50
2023-01-01T05:26:46.197Z,7.17
2023-01-01T05:29:17.021Z,5.83
2023-01-01T05:31:46.277Z,4.93
2023-01-01T05:34:14.391Z,4.77
2023-01-01T05:36:42.418Z,4.87
2023-01-01T05:39:12.887Z,4.63
2023-01-01T05:41:41.270Z,3.70
2023-01-01T05:44:11.725Z,2.50
2023-01-01T05:46:39.937Z,4.50
2023-01-01T05:49:08.014Z,4.50
2023-01-01T05:54:02.936Z,3.50
2023-01-01T05:56:30.925Z,3.20
2023-01-01T05:58:59.047Z,3.67
2023-01-01T06:01:29.673Z,4.60
2023-01-01T06:03:59.234Z,4.80
2023-01-01T06:06:29.610Z,4.20
2023-01-01T06:08:59.336Z,4.50
2023-01-01T06:11:28.132Z,4.17
2023-01-01T06:13:57.530Z,4.20
2023-01-01T06:16:26.606Z,4.27
2023-01-01T06:18:56.148Z,4.33
2023-01-01T06:21:26.234Z,4.20
2023-01-01T06:23:56.215Z,3.73
2023-01-01T06:26:26.175Z,4.00
2023-01-01T06:28:54.401Z,4.53
2023-01-01T06:31:23.624Z,3.70
2023-01-01T06:33:52.261Z,3.93
2023-01-01T06:36:24.452Z,3.37
2023-01-01T06:38:54.274Z,3.90
2023-01-01T06:41:24.432Z,4.10
2023-01-01T06:43:52.608Z,4.20
2023-01-01T06:46:22.814Z,4.50
2023-01-01T06:48:52.172Z,4.33
2023-01-01T06:51:23.288Z,5.07
2023-01-01T06:53:52.225Z,4.00
2023-01-01T06:56:21.679Z,4.80
2023-01-01T06:58:49.842Z,3.47
2023-01-01T07:01:21.037Z,3.90
2023-01-01T07:03:54.923Z,5.70
2023-01-01T07:06:25.066Z,5.07
2023-01-01T07:08:53.559Z,4.63
2023-01-01T07:11:22.260Z,4.23
2023-01-01T07:13:50.300Z,5.33
2023-01-01T07:16:18.586Z,3.67
2023-01-01T07:18:47.134Z,4.07
2023-01-01T07:21:30.565Z,3.67
2023-01-01T07:23:59.992Z,4.43
2023-01-01T07:26:29.121Z,4.37
2023-01-01T07:29:04.287Z,3.40
2023-01-01T07:31:35.332Z,3.63
2023-01-01T07:34:03.432Z,3.47
2023-01-01T07:36:33.145Z,3.67
2023-01-01T07:39:01.307Z,3.60
2023-01-01T07:41:29.451Z,3.50
2023-01-01T07:43:57.447Z,2.40
2023-01-01T07:46:25.664Z,4.00
2023-01-01T07:48:53.871Z,3.60
2023-01-01T07:51:21.851Z,4.20
2023-01-01T07:53:51.246Z,5.50
2023-01-01T07:56:19.357Z,5.97
2023-01-01T07:58:47.327Z,5.43
2023-01-01T08:01:15.864Z,4.13
2023-01-01T08:03:44.056Z,2.97
2023-01-01T08:06:13.774Z,3.90
2023-01-01T08:08:42.109Z,3.23
2023-01-01T08:11:11.510Z,2.50
2023-01-01T08:13:39.503Z,3.10
2023-01-01T08:16:08.231Z,3.03
2023-01-01T08:18:36.381Z,4.73
2023-01-01T08:21:05.112Z,4.07
2023-01-01T08:23:33.324Z,4.67
2023-01-01T08:26:02.233Z,7.47
2023-01-01T08:28:32.290Z,6.27
2023-01-01T08:31:00.694Z,6.73
2023-01-01T08:33:28.791Z,8.13
2023-01-01T08:35:56.906Z,5.97
2023-01-01T08:38:24.944Z,6.80
2023-01-01T08:40:53.017Z,5.20
2023-01-01T08:43:21.075Z,6.13
2023-01-01T08:45:50.466Z,4.73
2023-01-01T08:48:18.671Z,3.67
2023-01-01T08:50:52.949Z,3.30
2023-01-01T08:53:20.987Z,4.77
2023-01-01T08:55:57.362Z,6.73
2023-01-01T08:58:25.418Z,6.90
2023-01-01T09:00:55.423Z,6.27
2023-01-01T09:03:23.725Z,6.07
2023-01-01T09:05:51.861Z,8.87
2023-01-01T09:08:20.369Z,13.13
2023-01-01T09:10:48.587Z,9.60
2023-01-01T09:13:18.670Z,8.87
2023-01-01T09:15:46.848Z,9.00
2023-01-01T09:18:16.258Z,7.47
2023-01-01T09:20:44.372Z,13.67
2023-01-01T09:23:13.356Z,14.45
2023-01-01T09:25:41.365Z,11.93
2023-01-01T09:28:11.614Z,11.50
2023-01-01T09:30:39.701Z,13.53
2023-01-01T09:33:07.679Z,13.67
2023-01-01T09:35:38.582Z,12.30
2023-01-01T09:38:06.643Z,12.30
2023-01-01T09:40:43.571Z,10.73
2023-01-01T09:43:24.871Z,13.37
2023-01-01T09:45:58.103Z,10.53
2023-01-01T09:48:27.842Z,9.53
2023-01-01T09:50:57.654Z,9.70
2023-01-01T09:53:32.949Z,11.83
2023-01-01T09:56:02.447Z,7.83
2023-01-01T09:58:34.577Z,7.70
2023-01-01T10:01:06.966Z,8.13
2023-01-01T10:03:42.032Z,7.53
2023-01-01T10:06:21.301Z,7.00
2023-01-01T10:09:08.792Z,6.10
2023-01-01T10:11:46.689Z,4.27
2023-01-01T10:14:21.936Z,4.60
2023-01-01T10:16:53.411Z,4.10
2023-01-01T10:19:28.813Z,3.63
2023-01-01T10:22:05.205Z,4.03
2023-01-01T10:24:44.157Z,2.77
2023-01-01T10:27:25.946Z,3.00
2023-01-01T10:29:59.586Z,3.37
2023-01-01T10:32:33.660Z,2.23
2023-01-01T10:35:03.549Z,2.70
2023-01-01T10:37:37.138Z,2.00
2023-01-01T10:40:08.959Z,2.03
2023-01-01T10:42:36.940Z,2.37
2023-01-01T10:45:05.700Z,2.67
2023-01-01T10:47:33.833Z,2.10
2023-01-01T10:50:07.530Z,2.03
2023-01-01T10:52:40.587Z,2.20
2023-01-01T10:55:21.571Z,1.90
2023-01-01T10:57:49.544Z,2.20
2023-01-01T11:00:25.528Z,1.90
2023-01-01T11:03:19.647Z,2.30
2023-01-01T11:06:07.786Z,2.93
2023-01-01T11:08:39.921Z,2.10
2023-01-01T11:11:08.092Z,2.40
2023-01-01T11:13:36.225Z,2.13
2023-01-01T11:16:11.800Z,2.60
2023-01-01T11:18:39.852Z,2.20
2023-01-01T11:21:09.056Z,5.00
2023-01-01T11:23:39.935Z,2.60
2023-01-01T11:26:21.309Z,2.50
2023-01-01T11:29:01.472Z,1.40
2023-01-01T11:31:32.224Z,1.97
2023-01-01T11:34:00.362Z,2.80
2023-01-01T11:36:32.604Z,2.13
2023-01-01T11:39:23.432Z,2.53
2023-01-01T11:41:53.009Z,2.17
2023-01-01T11:44:30.972Z,2.20
2023-01-01T11:46:59.511Z,2.00
2023-01-01T11:49:30.111Z,1.90
2023-01-01T11:51:58.800Z,1.50
2023-01-01T11:54:35.902Z,1.90
2023-01-01T11:57:11.956Z,2.30
2023-01-01T11:59:47.150Z,2.13
2023-01-01T12:02:20.491Z,2.17
2023-01-01T12:04:54.393Z,2.23
2023-01-01T12:07:29.294Z,1.33
2023-01-01T12:10:02.689Z,1.67
2023-01-01T12:12:35.482Z,1.30
2023-01-01T12:15:07.496Z,1.87
2023-01-01T12:17:40.829Z,2.03
2023-01-01T12:20:14.409Z,1.40
2023-01-01T12:22:43.073Z,2.27
2023-01-01T12:25:16.746Z,2.00
2023-01-01T12:28:02.427Z,2.10
2023-01-01T12:30:33.800Z,1.50
2023-01-01T12:33:19.192Z,1.77
2023-01-01T12:36:16.282Z,1.37
2023-01-01T12:39:24.062Z,2.13
2023-01-01T12:41:59.724Z,1.67
2023-01-01T12:44:37.868Z,1.13
2023-01-01T12:47:16.861Z,1.30
2023-01-01T12:49:57.893Z,1.77
2023-01-01T12:52:34.713Z,1.90
2023-01-01T12:55:37.515Z,1.57
2023-01-01T12:58:13.214Z,1.53
2023-01-01T13:00:44.292Z,2.73
2023-01-01T13:03:19.766Z,1.50
2023-01-01T13:05:51.902Z,1.53
2023-01-01T13:08:19.954Z,1.80
2023-01-01T13:10:50.187Z,1.70
2023-01-01T13:13:21.199Z,1.60
2023-01-01T13:15:56.744Z,1.90
2023-01-01T13:18:32.341Z,1.20
2023-01-01T13:21:07.139Z,2.00
2023-01-01T13:23:55.147Z,1.20
2023-01-01T13:26:33.987Z,1.43
2023-01-01T13:29:44.917Z,1.50
2023-01-01T13:32:15.741Z,1.53
2023-01-01T13:35:01.498Z,1.30
2023-01-01T13:37:50.030Z,1.50
2023-01-01T13:40:52.893Z,1.90
2023-01-01T13:43:32.927Z,1.60
2023-01-01T13:46:13.338Z,2.20
2023-01-01T13:49:01.662Z,1.80
2023-01-01T13:52:10.823Z,1.60
2023-01-01T13:55:29.602Z,3.43
2023-01-01T13:58:16.851Z,2.90
2023-01-01T14:01:08.931Z,1.13
2023-01-01T14:03:42.297Z,1.47
2023-01-01T14:06:15.645Z,2.07
2023-01-01T14:08:43.801Z,1.47
2023-01-01T14:11:24.760Z,2.07
2023-01-01T14:13:52.756Z,1.60
2023-01-01T14:16:20.851Z,1.67
2023-01-01T14:18:50.831Z,1.67
2023-01-01T14:21:22.709Z,1.60
2023-01-01T14:23:52.465Z,2.20
2023-01-01T14:26:22.550Z,2.63
2023-01-01T14:28:54.337Z,1.93
2023-01-01T14:31:27.491Z,1.80
2023-01-01T14:33:55.476Z,1.50
2023-01-01T14:36:26.256Z,1.63
2023-01-01T14:38:55.559Z,2.30
2023-01-01T14:41:28.832Z,2.20
2023-01-01T14:43:59.418Z,2.07
2023-01-01T14:46:28.449Z,2.23
2023-01-01T14:48:58.531Z,2.50
2023-01-01T14:51:30.551Z,2.07
2023-01-01T14:54:00.969Z,1.77
2023-01-01T14:56:30.409Z,2.40
2023-01-01T14:59:06.420Z,1.60
2023-01-01T15:01:34.870Z,2.10
2023-01-01T15:04:05.400Z,2.37
2023-01-01T15:06:35.176Z,2.40
2023-01-01T15:09:03.521Z,2.00
2023-01-01T15:11:31.561Z,1.87
2023-01-01T15:14:01.589Z,2.33
2023-01-01T15:16:39.658Z,1.50
2023-01-01T15:19:19.409Z,1.80
2023-01-01T15:21:49.046Z,2.30
2023-01-01T15:24:22.119Z,2.07
2023-01-01T15:26:53.022Z,1.90
2023-01-01T15:29:28.217Z,1.73
2023-01-01T15:31:58.943Z,3.17
2023-01-01T15:34:30.683Z,1.87
2023-01-01T15:37:09.176Z,3.10
2023-01-01T15:39:46.835Z,12.50
2023-01-01T15:42:32.483Z,18.70
2023-01-01T15:45:18.994Z,15.00
2023-01-01T15:47:48.251Z,4.80
2023-01-01T15:50:23.523Z,3.83
2023-01-01T15:52:56.025Z,2.87
2023-01-01T15:55:26.837Z,1.80
2023-01-01T15:57:55.699Z,2.00
2023-01-01T16:00:26.314Z,2.00
2023-01-01T16:02:56.455Z,2.23
2023-01-01T16:05:26.846Z,2.17
2023-01-01T16:08:03.921Z,2.57
2023-01-01T16:10:32.798Z,2.57
2023-01-01T16:13:00.875Z,1.80
2023-01-01T16:15:29.054Z,2.40
2023-01-01T16:17:58.037Z,2.10
2023-01-01T16:20:26.876Z,3.90
2023-01-01T16:22:54.920Z,10.23
2023-01-01T16:25:25.279Z,16.87
2023-01-01T16:27:54.001Z,12.10
2023-01-01T16:30:27.756Z,4.27
2023-01-01T16:32:57.222Z,2.80
2023-01-01T16:35:25.510Z,2.57
2023-01-01T16:37:53.801Z,2.50
2023-01-01T16:40:22.083Z,3.00
2023-01-01T16:42:53.672Z,4.10
2023-01-01T16:45:21.999Z,2.67
2023-01-01T16:47:50.361Z,2.60
2023-01-01T16:50:18.810Z,1.53
2023-01-01T16:52:47.128Z,2.23
2023-01-01T16:55:15.497Z,2.43
2023-01-01T16:57:44.643Z,2.90
2023-01-01T17:00:15.244Z,1.67
2023-01-01T17:02:43.832Z,2.97
2023-01-01T17:05:12.457Z,1.97
2023-01-01T17:07:40.820Z,1.80
2023-01-01T17:10:09.546Z,2.10
2023-01-01T17:12:37.861Z,2.03
2023-01-01T17:15:06.646Z,2.53
2023-01-01T17:17:36.369Z,2.27
2023-01-01T17:20:04.794Z,4.50
2023-01-01T17:22:34.570Z,4.97
2023-01-01T17:25:03.575Z,3.17
2023-01-01T17:27:31.859Z,2.00
2023-01-01T17:30:00.329Z,3.97
2023-01-01T17:32:28.747Z,2.83
2023-01-01T17:34:58.454Z,3.00
2023-01-01T17:37:26.735Z,2.43
2023-01-01T17:39:55.053Z,3.57
2023-01-01T17:42:23.370Z,4.17
2023-01-01T17:44:51.716Z,2.20
2023-01-01T17:47:20.029Z,1.63
2023-01-01T17:49:48.892Z,2.00
2023-01-01T17:52:18.609Z,1.93
2023-01-01T17:54:48.897Z,2.27
2023-01-01T17:57:17.495Z,3.23
2023-01-01T17:59:47.997Z,3.10
2023-01-01T18:02:16.925Z,4.60
2023-01-01T18:04:45.369Z,4.27
2023-01-01T18:07:13.638Z,2.47
2023-01-01T18:09:43.651Z,3.20
2023-01-01T18:12:11.948Z,1.77
2023-01-01T18:14:40.360Z,2.87
2023-01-01T18:17:08.746Z,3.13
2023-01-01T18:19:38.908Z,3.30
2023-01-01T18:22:07.367Z,2.37
2023-01-01T18:24:35.821Z,2.33
2023-01-01T18:27:05.559Z,2.70
2023-01-01T18:29:33.852Z,3.10
2023-01-01T18:32:02.150Z,2.80
2023-01-01T18:34:30.432Z,4.37
2023-01-01T18:36:58.761Z,3.70
2023-01-01T18:39:28.655Z,4.20
2023-01-01T18:42:15.422Z,2.20
2023-01-01T18:44:45.140Z,1.80
2023-01-01T18:47:17.530Z,2.40
2023-01-01T18:49:48.310Z,3.27
2023-01-01T18:52:23.597Z,4.13
2023-01-01T18:54:53.927Z,3.60
2023-01-01T18:57:29.127Z,3.27
2023-01-01T19:00:00.634Z,3.03
2023-01-01T19:02:30.659Z,3.53
2023-01-01T19:05:07.821Z,3.13
2023-01-01T19:07:36.134Z,4.20
2023-01-01T19:10:10.781Z,3.73
2023-01-01T19:12:39.083Z,4.50
2023-01-01T19:15:16.931Z,5.50
2023-01-01T19:17:45.343Z,4.70
2023-01-01T19:20:17.841Z,4.80
2023-01-01T19:22:47.668Z,4.03
2023-01-01T19:25:30.845Z,4.00
2023-01-01T19:28:06.054Z,2.40
2023-01-01T19:30:35.707Z,3.30
2023-01-01T19:33:04.012Z,4.20
2023-01-01T19:35:32.355Z,2.20
2023-01-01T19:38:00.800Z,2.33
2023-01-01T19:40:29.651Z,1.70
2023-01-01T19:42:57.950Z,2.37
2023-01-01T19:45:26.221Z,2.90
2023-01-01T19:47:55.879Z,2.60
2023-01-01T19:50:24.236Z,2.50
2023-01-01T19:52:52.613Z,2.50
2023-01-01T19:55:20.898Z,3.40
2023-01-01T19:57:49.212Z,3.07
2023-01-01T20:00:17.650Z,1.97
2023-01-01T20:02:47.690Z,2.13
2023-01-01T20:05:18.085Z,3.20
2023-01-01T20:07:46.587Z,3.60
2023-01-01T20:10:14.951Z,1.90
2023-01-01T20:12:43.201Z,2.33
2023-01-01T20:15:11.741Z,3.27
2023-01-01T20:17:40.059Z,3.10
2023-01-01T20:20:08.986Z,3.43
2023-01-01T20:22:38.703Z,3.37
2023-01-01T20:25:07.435Z,3.40
2023-01-01T20:27:35.902Z,4.47
2023-01-01T20:30:04.233Z,5.33
2023-01-01T20:32:32.599Z,4.70
2023-01-01T20:35:00.939Z,5.67
2023-01-01T20:37:37.499Z,5.00
2023-01-01T20:40:09.456Z,4.37
2023-01-01T20:42:37.810Z,3.87
2023-01-01T20:45:06.458Z,3.90
2023-01-01T20:47:36.675Z,1.77
2023-01-01T20:50:05.147Z,3.00
2023-01-01T20:52:33.172Z,3.57
2023-01-01T20:55:01.223Z,2.50
2023-01-01T20:57:30.623Z,1.33
2023-01-01T20:59:58.611Z,2.87
2023-01-01T21:02:26.689Z,1.87
2023-01-01T21:04:54.847Z,2.90
2023-01-01T21:07:22.840Z,2.50
2023-01-01T21:09:50.837Z,2.80
2023-01-01T21:12:18.849Z,1.97
2023-01-01T21:14:48.436Z,2.60
2023-01-01T21:17:22.744Z,2.57
2023-01-01T21:19:52.051Z,6.87
2023-01-01T21:22:20.102Z,2.47
2023-01-01T21:24:53.569Z,3.07
2023-01-01T21:27:26.454Z,2.93
2023-01-01T21:29:58.619Z,2.03
2023-01-01T21:32:32.348Z,3.40
2023-01-01T21:35:00.498Z,2.20
2023-01-01T21:37:49.847Z,4.83
2023-01-01T21:40:38.468Z,3.57
2023-01-01T21:43:35.406Z,5.73
2023-01-01T21:46:26.231Z,4.97
2023-01-01T21:48:57.704Z,4.77
2023-01-01T21:51:27.563Z,5.03
2023-01-01T21:54:07.556Z,4.73
2023-01-01T21:56:38.129Z,4.93
2023-01-01T21:59:28.527Z,4.10
2023-01-01T22:02:26.155Z,5.30
2023-01-01T22:04:54.275Z,4.87
2023-01-01T22:10:16.958Z,3.97
2023-01-01T22:12:45.468Z,4.10
2023-01-01T22:15:29.739Z,5.23
2023-01-01T22:18:19.518Z,2.23
2023-01-01T22:20:48.757Z,4.50
2023-01-01T22:23:39.343Z,2.17
2023-01-01T22:26:17.885Z,2.50
2023-01-01T22:28:47.534Z,2.50
2023-01-01T22:31:19.877Z,3.70
2023-01-01T22:33:51.006Z,5.70
2023-01-01T22:36:23.491Z,2.73
2023-01-01T22:38:53.371Z,2.13
2023-01-01T22:41:21.378Z,3.60
2023-01-01T22:43:50.602Z,2.40
2023-01-01T22:46:27.562Z,4.43
2023-01-01T22:49:00.950Z,1.87
2023-01-01T22:51:35.271Z,1.90
2023-01-01T22:54:03.280Z,1.40
2023-01-01T22:56:31.290Z,1.40
2023-01-01T22:58:59.290Z,1.90
2023-01-01T23:01:27.364Z,1.50
2023-01-01T23:03:56.798Z,1.90
2023-01-01T23:06:25.112Z,1.70
2023-01-01T23:08:54.293Z,1.70
2023-01-01T23:11:22.809Z,1.17
2023-01-01T23:14:09.567Z,1.50
2023-01-01T23:16:37.953Z,1.27
2023-01-01T23:19:07.527Z,1.03
2023-01-01T23:21:37.067Z,1.43
2023-01-01T23:24:09.593Z,1.17
2023-01-01T23:26:38.663Z,0.90
2023-01-01T23:29:07.232Z,2.17
2023-01-01T23:31:38.689Z,1.90
2023-01-01T23:34:08.503Z,1.40
2023-01-01T23:36:36.958Z,2.20
2023-01-01T23:39:05.044Z,1.60
2023-01-01T23:41:33.054Z,1.10
2023-01-01T23:44:01.055Z,1.70
2023-01-01T23:46:29.206Z,0.93
2023-01-01T23:48:57.245Z,1.13
2023-01-01T23:51:26.593Z,1.50
2023-01-01T23:53:54.622Z,1.50
2023-01-01T23:56:22.829Z,1.40
2023-01-01T23:58:50.810Z,1.67
